Sunday, October 21, 2018, 5:23 PM GMT
Back to Local

CYKZ, Toronto Buttonville

Location: , , Canada Lat: 43.867
Local Time: 5:23 PM GMT (17:23 GMT) Lon: -79.367
Time Zone: GMT Elev: 649 ft

Show me the last for .
Show Coded

Time T Td Feel RH Dir Speed Gust Alt SLP Vis Weather Sky Remarks
2018-10-21 17:00 37 27 27 64 310° 10 20 30.15 30.18 15 BKN030 None
2018-10-21 16:00 37 27 30 64 320° 12 - 30.16 30.18 15 BKN020 OVC030 None
2018-10-21 15:00 36 27 30 69 320° 7 - 30.16 30.19 15 BKN024 OVC032 None
2018-10-21 14:00 36 23 31 59 320° 6 - 30.15 30.17 15 SCT023 BKN035 None
2018-10-21 13:00 34 21 23 59 330° 9 17 30.14 30.16 15 FEW025 BKN035 None
2018-10-21 12:00 32 19 27 59 290° 5 - 30.10 30.13 15 BKN040 None
2018-10-21 11:00 30 19 24 63 320° 6 - 30.08 30.10 15 SCT043 None
2018-10-21 10:00 32 18 24 54 330° 9 - 30.05 30.07 15 BKN039 None
2018-10-21 09:00 32 19 23 59 340° 13 - 30.01 30.03 15 BKN039 None
2018-10-21 08:00 34 21 22 59 330° 12 21 29.98 30.00 15 OVC039 None
2018-10-21 07:00 34 21 21 59 350° 17 25 29.95 29.97 15 BKN037 None
2018-10-21 06:00 37 25 26 60 340° 16 24 29.90 29.92 15 BKN031 Pressure rising rapidly
2018-10-21 05:00 39 25 28 55 340° 15 28 29.86 29.88 15 BKN036 None
2018-10-21 04:00 37 25 27 60 350° 12 20 29.83 29.85 15 SCT046 BKN170 None
2018-10-21 03:00 39 27 28 60 350° 16 25 29.81 29.82 15 BKN053 OVC130 None
2018-10-21 02:00 43 28 33 56 350° 16 28 29.76 29.78 15 BKN051 None
2018-10-21 01:00 43 30 34 60 340° 10 21 29.72 29.74 15 BKN130 None
2018-10-21 00:00 43 30 34 60 340° 15 21 29.70 29.72 15 SCT044 BKN180 None
2018-10-20 23:00 45 34 36 65 340° 12 22 29.67 29.68 15 SCT043 BKN190 Pressure rising rapidly
2018-10-20 22:00 50 32 47 49 350° 8 - 29.62 29.64 15 SCT050 BKN130 BKN220 None
2018-10-20 21:00 52 32 - 46 350° 10 - 29.60 29.61 15 FEW050 BKN140 BKN210 None
2018-10-20 20:00 52 30 - 43 330° 10 17 29.59 29.60 15 FEW048 BKN170 BKN200 None
2018-10-20 19:00 52 30 - 43 320° 13 20 29.59 29.61 15 FEW048 SCT070 BKN210 None
2018-10-20 18:00 54 32 - 43 320° 12 - 29.62 29.62 15 SCT044 SCT070 BKN210 None
2018-10-20 17:28 54 32 - 43 320° 13 18 29.63 29.64 15 SCT044 BKN200 Wind Shift: 15 min

Support USWX by starting your Amazon purchase here.